createdAt,value
2022-11-17T00:00:56.027Z,90.65
2022-11-17T00:01:58.378Z,90.49
2022-11-17T00:03:00.572Z,89.71
2022-11-17T00:04:02.747Z,89.90
2022-11-17T00:05:05.293Z,90.07
2022-11-17T00:06:07.424Z,89.79
2022-11-17T00:07:09.659Z,90.04
2022-11-17T00:08:12.006Z,89.67
2022-11-17T00:09:17.468Z,89.49
2022-11-17T00:10:20.054Z,89.55
2022-11-17T00:11:22.301Z,89.49
2022-11-17T00:12:43.302Z,89.04
2022-11-17T00:14:04.036Z,89.64
2022-11-17T00:15:06.769Z,90.41
2022-11-17T00:16:13.718Z,90.39
2022-11-17T00:17:15.876Z,89.97
2022-11-17T00:18:36.856Z,89.86
2022-11-17T00:19:58.925Z,89.66
2022-11-17T00:21:19.269Z,89.80
2022-11-17T00:22:21.940Z,90.27
2022-11-17T00:23:47.047Z,90.36
2022-11-17T00:24:50.241Z,90.54
2022-11-17T00:25:55.374Z,90.47
2022-11-17T00:27:06.263Z,89.90
2022-11-17T00:28:08.416Z,90.17
2022-11-17T00:29:10.557Z,90.14
2022-11-17T00:30:33.163Z,90.63
2022-11-17T00:31:53.673Z,90.56
2022-11-17T00:33:19.309Z,90.84
2022-11-17T00:34:23.385Z,90.69
2022-11-17T00:35:28.299Z,90.13
2022-11-17T00:36:31.471Z,90.06
2022-11-17T00:37:37.373Z,89.56
2022-11-17T00:38:39.734Z,89.77
2022-11-17T00:39:41.916Z,89.36
2022-11-17T00:40:44.354Z,89.16
2022-11-17T00:41:47.054Z,88.97
2022-11-17T00:42:49.275Z,89.03
2022-11-17T00:43:51.626Z,88.68
2022-11-17T00:44:53.764Z,88.77
2022-11-17T00:45:56.094Z,88.75
2022-11-17T00:46:58.433Z,88.22
2022-11-17T00:48:00.636Z,88.01
2022-11-17T00:49:03.927Z,88.16
2022-11-17T00:50:06.526Z,87.96
2022-11-17T00:51:08.868Z,87.97
2022-11-17T00:52:11.312Z,88.20
2022-11-17T00:53:13.453Z,88.42
2022-11-17T00:54:15.917Z,88.75
2022-11-17T00:55:18.106Z,88.82
2022-11-17T00:56:20.500Z,88.62
2022-11-17T00:57:22.821Z,89.12
2022-11-17T00:58:24.957Z,88.95
2022-11-17T00:59:27.314Z,88.78
2022-11-17T01:00:29.507Z,88.66
2022-11-17T01:01:34.878Z,88.41
2022-11-17T01:02:37.339Z,88.68
2022-11-17T01:03:39.528Z,88.78
2022-11-17T01:04:41.858Z,88.60
2022-11-17T01:05:43.988Z,88.42
2022-11-17T01:06:48.586Z,88.37
2022-11-17T01:07:53.029Z,88.88
2022-11-17T01:08:55.178Z,88.75
2022-11-17T01:09:57.411Z,89.14
2022-11-17T01:11:19.779Z,89.37
2022-11-17T01:12:22.190Z,89.19
2022-11-17T01:13:24.435Z,88.74
2022-11-17T01:14:34.014Z,88.03
2022-11-17T01:15:36.232Z,88.30
2022-11-17T01:16:38.559Z,88.48
2022-11-17T01:17:41.033Z,88.21
2022-11-17T01:18:45.811Z,87.76
2022-11-17T01:19:49.066Z,87.31
2022-11-17T01:20:51.224Z,87.58
2022-11-17T01:21:53.489Z,88.00
2022-11-17T01:22:58.832Z,87.92
2022-11-17T01:24:02.003Z,87.38
2022-11-17T01:25:05.033Z,87.21
2022-11-17T01:26:10.373Z,87.03
2022-11-17T01:27:15.038Z,87.44
2022-11-17T01:28:17.239Z,87.78
2022-11-17T01:29:19.427Z,88.41
2022-11-17T01:30:21.725Z,88.17
2022-11-17T01:31:29.643Z,87.68
2022-11-17T01:32:32.160Z,88.18
2022-11-17T01:33:34.978Z,88.16
2022-11-17T01:34:37.452Z,87.95
2022-11-17T01:35:42.338Z,87.51
2022-11-17T01:37:03.553Z,86.86
2022-11-17T01:38:05.974Z,86.68
2022-11-17T01:39:08.107Z,86.48
2022-11-17T01:40:13.477Z,86.46
2022-11-17T01:41:25.729Z,86.48
2022-11-17T01:42:28.237Z,86.31
2022-11-17T01:43:44.563Z,87.17
2022-11-17T01:44:56.014Z,87.27
2022-11-17T01:45:58.568Z,87.75
2022-11-17T01:47:01.374Z,87.73
2022-11-17T01:48:07.210Z,87.83
2022-11-17T01:49:35.755Z,87.12
2022-11-17T01:50:40.528Z,86.54
2022-11-17T01:51:48.595Z,86.53
2022-11-17T01:52:53.867Z,86.51
2022-11-17T01:53:56.328Z,86.31
2022-11-17T01:55:00.484Z,87.14
2022-11-17T01:56:11.072Z,87.25
2022-11-17T01:57:16.254Z,87.67
2022-11-17T01:58:24.523Z,87.29
2022-11-17T01:59:37.380Z,86.58
2022-11-17T02:00:40.356Z,85.88
2022-11-17T02:01:55.799Z,85.54
2022-11-17T02:02:58.806Z,85.20
2022-11-17T02:04:01.069Z,85.51
2022-11-17T02:05:21.928Z,85.44
2022-11-17T02:06:29.795Z,85.28
2022-11-17T02:07:36.404Z,85.83
2022-11-17T02:08:41.462Z,86.09
2022-11-17T02:09:46.805Z,86.01
2022-11-17T02:10:51.894Z,85.45
2022-11-17T02:11:58.496Z,85.79
2022-11-17T02:13:01.453Z,85.80
2022-11-17T02:14:05.511Z,86.45
2022-11-17T02:15:08.316Z,86.24
2022-11-17T02:16:18.245Z,86.12
2022-11-17T02:17:22.062Z,85.95
2022-11-17T02:18:24.492Z,86.40
2022-11-17T02:19:31.976Z,86.66
2022-11-17T02:20:55.751Z,86.37
2022-11-17T02:22:03.838Z,86.65
2022-11-17T02:23:20.697Z,86.50
2022-11-17T02:24:50.240Z,85.96
2022-11-17T02:26:21.621Z,86.28
2022-11-17T02:27:39.112Z,85.67
2022-11-17T02:29:13.724Z,87.01
2022-11-17T02:30:19.282Z,87.15
2022-11-17T02:31:38.310Z,86.58
2022-11-17T02:32:58.753Z,87.29
2022-11-17T02:34:10.196Z,87.49
2022-11-17T02:35:19.763Z,87.29
2022-11-17T02:36:41.420Z,86.79
2022-11-17T02:38:04.836Z,86.69
2022-11-17T02:39:22.519Z,86.82
2022-11-17T02:40:43.028Z,86.56
2022-11-17T02:42:07.203Z,85.94
2022-11-17T02:43:36.521Z,85.74
2022-11-17T02:44:51.113Z,86.33
2022-11-17T02:46:16.925Z,85.97
2022-11-17T02:47:25.386Z,85.99
2022-11-17T02:48:32.921Z,86.48
2022-11-17T02:49:41.235Z,87.62
2022-11-17T02:50:46.896Z,88.04
2022-11-17T02:51:53.788Z,87.78
2022-11-17T02:52:56.594Z,87.22
2022-11-17T02:54:00.136Z,87.09
2022-11-17T02:55:05.868Z,86.91
2022-11-17T02:56:08.052Z,87.01
2022-11-17T02:57:29.052Z,87.57
2022-11-17T02:58:31.355Z,87.47
2022-11-17T02:59:43.456Z,87.57
2022-11-17T03:01:19.702Z,87.29
2022-11-17T03:02:37.077Z,87.49
2022-11-17T03:04:04.460Z,87.86
2022-11-17T03:05:09.667Z,87.16
2022-11-17T03:06:36.278Z,86.34
2022-11-17T03:07:47.559Z,86.05
2022-11-17T03:09:08.680Z,85.96
2022-11-17T03:10:28.971Z,86.62
2022-11-17T03:11:48.381Z,86.02
2022-11-17T03:13:22.725Z,85.67
2022-11-17T03:14:33.875Z,85.43
2022-11-17T03:16:12.993Z,85.08
2022-11-17T03:17:29.986Z,85.81
2022-11-17T03:18:46.810Z,85.72
2022-11-17T03:20:24.473Z,85.96
2022-11-17T03:21:31.762Z,86.22
2022-11-17T03:22:43.752Z,86.80
2022-11-17T03:24:07.896Z,87.16
2022-11-17T03:25:15.932Z,87.16
2022-11-17T03:26:27.507Z,86.83
2022-11-17T03:27:37.680Z,86.36
2022-11-17T03:28:44.211Z,86.58
2022-11-17T03:29:51.247Z,86.89
2022-11-17T03:30:54.226Z,87.67
2022-11-17T03:32:02.267Z,87.97
2022-11-17T03:33:10.985Z,87.59
2022-11-17T03:34:17.563Z,87.04
2022-11-17T03:35:24.020Z,87.00
2022-11-17T03:36:32.252Z,87.37
2022-11-17T03:37:37.275Z,86.94
2022-11-17T03:38:47.872Z,86.55
2022-11-17T03:39:53.712Z,86.15
2022-11-17T03:41:00.410Z,86.11
2022-11-17T03:42:13.531Z,86.60
2022-11-17T03:43:18.446Z,86.06
2022-11-17T03:44:24.217Z,85.40
2022-11-17T03:45:32.046Z,85.04
2022-11-17T03:46:36.973Z,85.03
2022-11-17T03:47:40.444Z,86.09
2022-11-17T03:48:53.847Z,86.66
2022-11-17T03:50:27.724Z,86.54
2022-11-17T03:51:33.171Z,86.07
2022-11-17T03:52:38.236Z,86.52
2022-11-17T03:53:40.847Z,86.55
2022-11-17T03:54:43.120Z,86.45
2022-11-17T03:55:57.161Z,86.53
2022-11-17T03:57:27.319Z,86.94
2022-11-17T03:58:33.614Z,86.59
2022-11-17T03:59:56.931Z,86.40
2022-11-17T04:01:02.746Z,87.38
2022-11-17T04:02:05.174Z,86.89
2022-11-17T04:03:07.643Z,87.04
2022-11-17T04:04:21.174Z,87.65
2022-11-17T04:05:23.446Z,87.94
2022-11-17T04:06:25.849Z,87.30
2022-11-17T04:07:28.062Z,86.61
2022-11-17T04:08:30.945Z,86.29
2022-11-17T04:09:33.168Z,86.49
2022-11-17T04:10:55.494Z,86.38
2022-11-17T04:12:16.214Z,86.05
2022-11-17T04:13:37.754Z,85.56
2022-11-17T04:14:58.740Z,85.52
2022-11-17T04:16:01.666Z,86.74
2022-11-17T04:17:03.820Z,87.43
2022-11-17T04:18:06.405Z,87.15
2022-11-17T04:19:09.125Z,87.27
2022-11-17T04:20:11.429Z,87.44
2022-11-17T04:21:13.761Z,87.25
2022-11-17T04:22:15.900Z,87.01
2022-11-17T04:23:18.371Z,87.12
2022-11-17T04:24:20.759Z,87.09
2022-11-17T04:25:42.940Z,86.62
2022-11-17T04:27:04.118Z,86.66
2022-11-17T04:28:25.253Z,86.52
2022-11-17T04:29:28.685Z,86.86
2022-11-17T04:30:30.847Z,86.97
2022-11-17T04:31:33.062Z,87.02
2022-11-17T04:32:35.440Z,86.98
2022-11-17T04:33:40.060Z,87.33
2022-11-17T04:34:42.799Z,87.51
2022-11-17T04:35:50.347Z,87.15
2022-11-17T04:36:52.794Z,87.17
2022-11-17T04:37:55.280Z,86.67
2022-11-17T04:38:59.101Z,86.12
2022-11-17T04:40:01.616Z,86.01
2022-11-17T04:41:25.522Z,86.54
2022-11-17T04:42:28.762Z,86.41
2022-11-17T04:43:31.195Z,86.19
2022-11-17T04:44:33.351Z,85.40
2022-11-17T04:45:35.877Z,84.77
2022-11-17T04:46:39.828Z,85.61
2022-11-17T04:47:41.980Z,86.58
2022-11-17T04:48:45.344Z,86.96
2022-11-17T04:49:47.529Z,87.02
2022-11-17T04:50:56.752Z,86.92
2022-11-17T04:51:59.012Z,87.34
2022-11-17T04:53:01.185Z,87.31
2022-11-17T04:54:05.120Z,86.75
2022-11-17T04:55:08.219Z,86.99
2022-11-17T04:56:10.556Z,87.31
2022-11-17T04:57:12.725Z,86.97
2022-11-17T04:58:15.164Z,86.52
2022-11-17T04:59:17.866Z,86.21
2022-11-17T05:00:20.293Z,85.60
2022-11-17T05:01:23.608Z,85.23
2022-11-17T05:02:25.778Z,84.70
2022-11-17T05:03:28.194Z,84.54
2022-11-17T05:04:48.892Z,84.54
2022-11-17T05:05:51.450Z,84.45
2022-11-17T05:06:53.688Z,84.57
2022-11-17T05:07:55.874Z,85.19
2022-11-17T05:08:59.876Z,85.13
2022-11-17T05:10:02.084Z,85.96
2022-11-17T05:11:25.196Z,86.80
2022-11-17T05:12:46.097Z,87.06
2022-11-17T05:13:49.932Z,86.16
2022-11-17T05:14:52.425Z,86.37
2022-11-17T05:16:15.587Z,86.58
2022-11-17T05:17:18.160Z,86.92
2022-11-17T05:18:20.318Z,87.01
2022-11-17T05:19:25.336Z,86.71
2022-11-17T05:20:27.521Z,86.37
2022-11-17T05:21:30.081Z,85.69
2022-11-17T05:22:50.863Z,85.15
2022-11-17T05:23:55.781Z,85.19
2022-11-17T05:24:58.283Z,85.77
2022-11-17T05:26:00.644Z,86.22
2022-11-17T05:27:03.003Z,86.60
2022-11-17T05:28:05.260Z,86.70
2022-11-17T05:29:08.780Z,87.02
2022-11-17T05:30:11.713Z,87.08
2022-11-17T05:31:13.920Z,87.30
2022-11-17T05:32:16.890Z,87.12
2022-11-17T05:33:19.045Z,87.30
2022-11-17T05:34:21.324Z,87.45
2022-11-17T05:35:23.668Z,87.37
2022-11-17T05:36:27.750Z,86.74
2022-11-17T05:37:30.142Z,86.51
2022-11-17T05:38:32.406Z,86.92
2022-11-17T05:39:34.753Z,86.60
2022-11-17T05:40:36.937Z,86.83
2022-11-17T05:41:39.146Z,87.00
2022-11-17T05:42:41.492Z,87.27
2022-11-17T05:43:44.479Z,87.44
2022-11-17T05:44:48.544Z,87.24
2022-11-17T05:45:50.936Z,87.20
2022-11-17T05:46:53.564Z,87.00
2022-11-17T05:47:55.729Z,87.00
2022-11-17T05:48:57.919Z,86.94
2022-11-17T05:50:00.326Z,86.51
2022-11-17T05:51:02.968Z,86.12
2022-11-17T05:52:05.518Z,85.91
2022-11-17T05:53:07.717Z,85.60
2022-11-17T05:54:10.198Z,85.38
2022-11-17T05:55:12.409Z,85.23
2022-11-17T05:56:33.355Z,85.28
2022-11-17T05:57:35.974Z,85.13
2022-11-17T05:58:42.299Z,85.00
2022-11-17T05:59:50.153Z,85.41
2022-11-17T06:00:54.393Z,85.51
2022-11-17T06:02:08.684Z,85.40
2022-11-17T06:03:21.593Z,85.33
2022-11-17T06:04:24.397Z,84.94
2022-11-17T06:05:27.381Z,85.01
2022-11-17T06:06:30.852Z,84.79
2022-11-17T06:07:34.886Z,85.36
2022-11-17T06:08:37.389Z,85.85
2022-11-17T06:09:42.062Z,86.50
2022-11-17T06:10:44.274Z,86.21
2022-11-17T06:11:46.645Z,86.61
2022-11-17T06:12:49.034Z,86.58
2022-11-17T06:13:51.228Z,86.71
2022-11-17T06:14:53.795Z,86.58
2022-11-17T06:15:58.858Z,86.66
2022-11-17T06:17:07.067Z,86.57
2022-11-17T06:18:15.057Z,86.56
2022-11-17T06:19:24.993Z,87.03
2022-11-17T06:20:37.361Z,87.38
2022-11-17T06:22:09.848Z,87.45
2022-11-17T06:23:06.081Z,87.07
2022-11-17T06:24:09.062Z,87.11
2022-11-17T06:25:11.713Z,87.04
2022-11-17T06:26:15.075Z,86.98
2022-11-17T06:27:17.539Z,86.84
2022-11-17T06:28:22.710Z,86.50
2022-11-17T06:29:25.997Z,86.04
2022-11-17T06:30:29.275Z,86.07
2022-11-17T06:31:32.519Z,86.11
2022-11-17T06:32:37.941Z,86.57
2022-11-17T06:33:40.371Z,87.03
2022-11-17T06:34:49.065Z,87.10
2022-11-17T06:35:54.406Z,87.55
2022-11-17T06:36:56.785Z,87.63
2022-11-17T06:38:00.060Z,87.07
2022-11-17T06:39:02.529Z,87.26
2022-11-17T06:40:05.242Z,87.50
2022-11-17T06:41:11.617Z,87.97
2022-11-17T06:42:14.515Z,87.74
2022-11-17T06:43:16.934Z,87.94
2022-11-17T06:44:19.330Z,87.97
2022-11-17T06:45:21.523Z,87.90
2022-11-17T06:46:23.676Z,87.60
2022-11-17T06:47:26.051Z,87.86
2022-11-17T06:48:28.349Z,87.68
2022-11-17T06:49:31.009Z,88.18
2022-11-17T06:50:33.829Z,88.24
2022-11-17T06:51:38.020Z,88.10
2022-11-17T06:52:43.356Z,87.77
2022-11-17T06:53:45.735Z,87.55
2022-11-17T06:54:47.909Z,87.61
2022-11-17T06:56:01.308Z,87.83
2022-11-17T06:57:03.704Z,88.02
2022-11-17T06:58:08.144Z,88.08
2022-11-17T06:59:10.504Z,88.34
2022-11-17T07:00:13.171Z,88.23
2022-11-17T07:01:15.728Z,87.76
2022-11-17T07:02:18.587Z,87.50
2022-11-17T07:03:20.935Z,86.88
2022-11-17T07:04:23.279Z,86.41
2022-11-17T07:05:25.450Z,86.25
2022-11-17T07:06:27.609Z,86.51
2022-11-17T07:07:29.878Z,86.66
2022-11-17T07:08:33.111Z,86.21
2022-11-17T07:09:35.873Z,85.92
2022-11-17T07:10:38.333Z,85.72
2022-11-17T07:11:40.517Z,86.54
2022-11-17T07:12:42.889Z,86.81
2022-11-17T07:13:45.214Z,87.56
2022-11-17T07:14:47.550Z,87.87
2022-11-17T07:15:50.193Z,88.04
2022-11-17T07:16:52.447Z,87.97
2022-11-17T07:17:54.912Z,87.83
2022-11-17T07:18:59.243Z,87.90
2022-11-17T07:20:01.748Z,88.10
2022-11-17T07:21:06.002Z,87.92
2022-11-17T07:22:08.357Z,88.09
2022-11-17T07:23:10.860Z,87.80
2022-11-17T07:24:13.037Z,88.12
2022-11-17T07:25:21.106Z,88.25
2022-11-17T07:26:24.827Z,88.52
2022-11-17T07:27:27.137Z,88.57
2022-11-17T07:28:30.129Z,89.04
2022-11-17T07:29:32.755Z,88.92
2022-11-17T07:30:36.172Z,88.54
2022-11-17T07:31:38.486Z,87.79
2022-11-17T07:32:40.675Z,87.40
2022-11-17T07:33:42.850Z,86.86
2022-11-17T07:34:45.462Z,87.38
2022-11-17T07:35:47.910Z,87.73
2022-11-17T07:36:50.274Z,88.04
2022-11-17T07:37:56.171Z,88.07
2022-11-17T07:38:58.357Z,87.33
2022-11-17T07:40:00.954Z,86.98
2022-11-17T07:41:04.579Z,86.61
2022-11-17T07:42:07.241Z,86.80
2022-11-17T07:43:09.719Z,87.37
2022-11-17T07:44:12.270Z,87.62
2022-11-17T07:45:14.739Z,87.43
2022-11-17T07:46:16.880Z,86.98
2022-11-17T07:47:19.337Z,86.75
2022-11-17T07:48:21.669Z,86.30
2022-11-17T07:49:24.344Z,85.83
2022-11-17T07:50:27.181Z,85.85
2022-11-17T07:51:29.601Z,85.26
2022-11-17T07:52:32.827Z,85.23
2022-11-17T07:53:37.254Z,84.67
2022-11-17T07:54:39.571Z,84.69
2022-11-17T07:55:42.126Z,85.34
2022-11-17T07:56:44.382Z,85.83
2022-11-17T07:57:46.879Z,85.54
2022-11-17T07:58:49.185Z,85.27
2022-11-17T07:59:51.375Z,85.59
2022-11-17T08:00:53.611Z,86.00
2022-11-17T08:01:55.990Z,85.92
2022-11-17T08:03:03.567Z,85.80
2022-11-17T08:04:05.992Z,86.51
2022-11-17T08:05:09.015Z,86.66
2022-11-17T08:06:11.369Z,86.51
2022-11-17T08:07:14.014Z,86.61
2022-11-17T08:08:16.427Z,86.53
2022-11-17T08:09:18.893Z,85.89
2022-11-17T08:10:21.528Z,85.13
2022-11-17T08:11:23.897Z,84.75
2022-11-17T08:12:26.268Z,84.67
2022-11-17T08:13:28.481Z,84.78
2022-11-17T08:14:30.618Z,84.58
2022-11-17T08:15:33.022Z,84.51
2022-11-17T08:16:35.198Z,84.81
2022-11-17T08:17:37.592Z,85.04
2022-11-17T08:18:40.151Z,85.20
2022-11-17T08:19:42.613Z,85.50
2022-11-17T08:20:44.992Z,84.80
2022-11-17T08:21:47.580Z,84.50
2022-11-17T08:22:51.178Z,84.49
2022-11-17T08:23:54.999Z,84.32
2022-11-17T08:24:57.342Z,83.98
2022-11-17T08:26:01.693Z,83.62
2022-11-17T08:27:03.877Z,84.09
2022-11-17T08:28:06.294Z,83.97
2022-11-17T08:29:08.746Z,83.77
2022-11-17T08:30:11.395Z,84.70
2022-11-17T08:31:13.955Z,84.80
2022-11-17T08:32:16.507Z,84.52
2022-11-17T08:33:18.927Z,84.08
2022-11-17T08:34:21.361Z,84.24
2022-11-17T08:35:25.576Z,84.87
2022-11-17T08:36:28.097Z,84.69
2022-11-17T08:37:30.912Z,84.52
2022-11-17T08:38:33.739Z,84.35
2022-11-17T08:39:36.426Z,84.26
2022-11-17T08:40:39.147Z,83.96
2022-11-17T08:41:41.452Z,83.18
2022-11-17T08:42:44.213Z,82.99
2022-11-17T08:43:46.461Z,83.35
2022-11-17T08:44:49.001Z,83.64
2022-11-17T08:45:51.360Z,83.93
2022-11-17T08:46:53.599Z,83.69
2022-11-17T08:47:56.866Z,83.41
2022-11-17T08:49:00.866Z,83.71
2022-11-17T08:50:04.684Z,83.61
2022-11-17T08:51:08.843Z,83.89
2022-11-17T08:52:11.068Z,83.72
2022-11-17T08:53:15.420Z,83.75
2022-11-17T08:54:17.614Z,83.80
2022-11-17T08:55:19.879Z,83.75
2022-11-17T08:56:22.237Z,83.55
2022-11-17T08:57:24.440Z,82.87
2022-11-17T08:58:26.868Z,82.57
2022-11-17T08:59:29.052Z,82.46
2022-11-17T09:00:31.480Z,82.64
2022-11-17T09:01:35.074Z,82.70
2022-11-17T09:02:38.364Z,82.76
2022-11-17T09:03:44.882Z,83.09
2022-11-17T09:04:47.749Z,83.07
2022-11-17T09:05:50.232Z,82.76
2022-11-17T09:06:52.643Z,82.65
2022-11-17T09:07:55.060Z,82.25
2022-11-17T09:08:57.888Z,81.99
2022-11-17T09:10:00.871Z,81.71
2022-11-17T09:11:08.762Z,81.24
2022-11-17T09:12:10.988Z,80.83
2022-11-17T09:13:18.418Z,80.61
2022-11-17T09:14:20.882Z,80.42
2022-11-17T09:15:23.849Z,80.87
2022-11-17T09:16:26.479Z,80.83
2022-11-17T09:17:28.653Z,80.62
2022-11-17T09:18:31.087Z,80.39
2022-11-17T09:19:33.279Z,81.07
2022-11-17T09:20:35.532Z,81.75
2022-11-17T09:21:37.916Z,81.54
2022-11-17T09:22:40.114Z,81.40
2022-11-17T09:23:42.806Z,81.48
2022-11-17T09:24:44.967Z,81.19
2022-11-17T09:25:48.610Z,80.38
2022-11-17T09:26:53.535Z,80.43
2022-11-17T09:27:55.904Z,80.63
2022-11-17T09:29:04.285Z,80.75
2022-11-17T09:30:11.092Z,80.67
2022-11-17T09:31:16.546Z,80.31
2022-11-17T09:32:20.906Z,80.56
2022-11-17T09:33:23.126Z,80.50
2022-11-17T09:34:25.646Z,80.34
2022-11-17T09:35:30.740Z,80.31
2022-11-17T09:36:33.148Z,80.51
2022-11-17T09:37:35.618Z,80.89
2022-11-17T09:38:38.427Z,80.54
2022-11-17T09:39:41.014Z,80.09
2022-11-17T09:40:43.841Z,79.19
2022-11-17T09:41:49.332Z,78.75
2022-11-17T09:42:52.092Z,79.35
2022-11-17T09:44:26.379Z,79.88
2022-11-17T09:45:37.443Z,79.86
2022-11-17T09:46:57.679Z,79.91
2022-11-17T09:48:38.799Z,79.94
2022-11-17T09:49:55.257Z,80.21
2022-11-17T09:51:04.391Z,79.14
2022-11-17T09:52:46.045Z,78.34
2022-11-17T09:53:50.814Z,78.45
2022-11-17T09:55:08.112Z,78.80
2022-11-17T09:56:12.223Z,79.82
2022-11-17T09:57:38.339Z,79.93
2022-11-17T09:58:58.776Z,79.64
2022-11-17T10:00:15.107Z,79.17
2022-11-17T10:01:23.518Z,78.27
2022-11-17T10:02:25.785Z,78.64
2022-11-17T10:03:31.065Z,78.38
2022-11-17T10:04:34.328Z,79.35
2022-11-17T10:05:38.019Z,79.80
2022-11-17T10:06:46.493Z,79.88
2022-11-17T10:07:51.607Z,79.96
2022-11-17T10:09:06.957Z,79.74
2022-11-17T10:10:18.459Z,78.85
2022-11-17T10:11:32.558Z,78.55
2022-11-17T10:12:42.883Z,78.36
2022-11-17T10:13:45.307Z,78.85
2022-11-17T10:14:51.661Z,79.29
2022-11-17T10:15:58.011Z,79.66
2022-11-17T10:17:00.187Z,79.58
2022-11-17T10:18:02.342Z,79.39
2022-11-17T10:19:18.298Z,79.31
2022-11-17T10:20:20.691Z,79.40
2022-11-17T10:21:23.484Z,79.55
2022-11-17T10:22:45.348Z,79.75
2022-11-17T10:23:59.662Z,79.69
2022-11-17T10:25:04.788Z,79.52
2022-11-17T10:26:12.871Z,79.06
2022-11-17T10:27:19.496Z,78.75
2022-11-17T10:28:32.324Z,77.69
2022-11-17T10:29:36.671Z,77.77
2022-11-17T10:30:39.120Z,78.38
2022-11-17T10:31:45.048Z,78.87
2022-11-17T10:32:55.643Z,78.99
2022-11-17T10:33:58.076Z,78.88
2022-11-17T10:35:16.825Z,78.81
2022-11-17T10:36:20.701Z,78.66
2022-11-17T10:37:30.720Z,78.32
2022-11-17T10:38:34.163Z,78.08
2022-11-17T10:39:40.037Z,77.65
2022-11-17T10:40:42.768Z,77.31
2022-11-17T10:41:50.471Z,77.69
2022-11-17T10:43:17.702Z,77.99
2022-11-17T10:44:32.511Z,77.42
2022-11-17T10:45:35.333Z,77.19
2022-11-17T10:47:02.781Z,77.65
2022-11-17T10:48:17.267Z,77.41
2022-11-17T10:49:32.883Z,77.45
2022-11-17T10:50:35.363Z,76.70
2022-11-17T10:51:37.980Z,76.38
2022-11-17T10:52:40.306Z,76.24
2022-11-17T10:53:46.685Z,75.93
2022-11-17T10:54:49.885Z,75.63
2022-11-17T10:56:02.532Z,75.89
2022-11-17T10:57:15.101Z,75.71
2022-11-17T10:58:31.048Z,76.26
2022-11-17T10:59:56.729Z,76.11
2022-11-17T11:01:03.108Z,76.83
2022-11-17T11:02:29.891Z,76.75
2022-11-17T11:03:34.812Z,76.79
2022-11-17T11:04:42.139Z,76.75
2022-11-17T11:05:57.531Z,76.50
2022-11-17T11:07:21.587Z,76.25
2022-11-17T11:08:30.836Z,76.11
2022-11-17T11:09:35.805Z,76.36
2022-11-17T11:10:38.216Z,76.33
2022-11-17T11:11:47.750Z,75.80
2022-11-17T11:13:02.170Z,75.38
2022-11-17T11:14:30.870Z,75.65
2022-11-17T11:15:36.103Z,75.82
2022-11-17T11:16:40.414Z,76.70
2022-11-17T11:17:45.324Z,76.60
2022-11-17T11:18:50.773Z,76.25
2022-11-17T11:19:53.696Z,76.14
2022-11-17T11:21:42.286Z,76.21
2022-11-17T11:22:59.670Z,76.36
2022-11-17T11:24:33.707Z,76.06
2022-11-17T11:25:47.695Z,76.37
2022-11-17T11:27:26.882Z,76.23
2022-11-17T11:29:05.315Z,75.94
2022-11-17T11:30:12.584Z,76.07
2022-11-17T11:31:44.249Z,75.51
2022-11-17T11:32:58.594Z,75.37
2022-11-17T11:34:24.735Z,75.49
2022-11-17T11:35:32.966Z,75.44
2022-11-17T11:36:49.306Z,75.81
2022-11-17T11:38:38.697Z,75.84
2022-11-17T11:40:02.750Z,75.40
2022-11-17T11:41:35.716Z,75.92
2022-11-17T11:42:50.175Z,75.92
2022-11-17T11:44:36.789Z,75.75
2022-11-17T11:45:49.559Z,75.95
2022-11-17T11:47:13.332Z,76.36
2022-11-17T11:48:31.987Z,76.25
2022-11-17T11:49:40.481Z,76.20
2022-11-17T11:50:53.788Z,76.33
2022-11-17T11:51:55.962Z,76.23
2022-11-17T11:53:02.230Z,75.87
2022-11-17T11:54:17.379Z,75.76
2022-11-17T11:55:27.749Z,75.49
2022-11-17T11:56:38.199Z,76.20
2022-11-17T11:57:48.229Z,76.17
2022-11-17T11:59:15.678Z,75.69
2022-11-17T12:00:18.566Z,75.31
2022-11-17T12:01:23.552Z,75.60
2022-11-17T12:02:38.630Z,76.13
2022-11-17T12:03:56.754Z,75.24
2022-11-17T12:05:21.966Z,76.01
2022-11-17T12:06:42.895Z,76.71
2022-11-17T12:08:12.539Z,77.21
2022-11-17T12:09:33.701Z,76.97
2022-11-17T12:10:44.063Z,76.87
2022-11-17T12:12:00.666Z,76.36
2022-11-17T12:13:04.863Z,75.68
2022-11-17T12:14:17.256Z,75.49
2022-11-17T12:15:19.366Z,75.78
2022-11-17T12:16:31.957Z,76.39
2022-11-17T12:17:34.885Z,76.49
2022-11-17T12:18:37.173Z,76.67
2022-11-17T12:19:52.586Z,76.32
2022-11-17T12:21:13.374Z,75.99
2022-11-17T12:22:31.810Z,75.14
2022-11-17T12:23:44.991Z,75.51
2022-11-17T12:24:47.372Z,75.28
2022-11-17T12:25:56.972Z,75.38
2022-11-17T12:27:33.513Z,75.39
2022-11-17T12:28:41.028Z,74.69
2022-11-17T12:29:47.345Z,74.70
2022-11-17T12:30:53.099Z,74.84
2022-11-17T12:31:58.166Z,75.21
2022-11-17T12:33:01.831Z,75.66
2022-11-17T12:34:07.824Z,75.39
2022-11-17T12:35:33.046Z,75.22
2022-11-17T12:36:36.228Z,75.51
2022-11-17T12:37:41.541Z,75.11
2022-11-17T12:38:43.946Z,74.82
2022-11-17T12:39:59.909Z,75.06
2022-11-17T12:41:06.330Z,75.44
2022-11-17T12:42:08.716Z,75.46
2022-11-17T12:43:16.590Z,75.23
2022-11-17T12:44:37.321Z,75.36
2022-11-17T12:46:05.740Z,74.85
2022-11-17T12:47:15.361Z,74.38
2022-11-17T12:48:35.591Z,74.99
2022-11-17T12:49:56.273Z,76.00
2022-11-17T12:51:08.275Z,75.96
2022-11-17T12:52:19.764Z,75.43
2022-11-17T12:53:33.049Z,74.99
2022-11-17T12:54:48.113Z,74.69
2022-11-17T12:55:59.688Z,75.19
2022-11-17T12:57:13.936Z,75.86
2022-11-17T12:58:25.382Z,75.63
2022-11-17T12:59:33.522Z,75.61
2022-11-17T13:00:49.028Z,75.91
2022-11-17T13:02:28.966Z,75.76
2022-11-17T13:04:08.425Z,75.97
2022-11-17T13:05:22.657Z,75.68
2022-11-17T13:06:35.431Z,75.33
2022-11-17T13:07:39.526Z,75.59
2022-11-17T13:09:01.874Z,74.95
2022-11-17T13:10:04.530Z,74.75
2022-11-17T13:11:14.500Z,74.34
2022-11-17T13:12:22.032Z,74.10
2022-11-17T13:13:25.015Z,74.10
2022-11-17T13:14:27.808Z,74.34
2022-11-17T13:15:30.027Z,74.18
2022-11-17T13:16:32.448Z,74.62
2022-11-17T13:17:55.222Z,75.41
2022-11-17T13:18:57.490Z,75.24
2022-11-17T13:20:03.624Z,75.40
2022-11-17T13:21:39.132Z,76.33
2022-11-17T13:22:42.220Z,76.40
2022-11-17T13:23:48.384Z,76.19
2022-11-17T13:24:50.956Z,76.22
2022-11-17T13:26:21.302Z,76.63
2022-11-17T13:27:26.611Z,76.32
2022-11-17T13:28:32.979Z,76.02
2022-11-17T13:29:35.950Z,76.41
2022-11-17T13:30:38.332Z,76.03
2022-11-17T13:31:41.133Z,75.69
2022-11-17T13:32:43.933Z,75.42
2022-11-17T13:34:04.209Z,74.74
2022-11-17T13:35:18.684Z,74.89
2022-11-17T13:36:24.936Z,75.33
2022-11-17T13:37:28.908Z,75.60
2022-11-17T13:38:31.385Z,75.87
2022-11-17T13:39:33.813Z,76.48
2022-11-17T13:40:37.356Z,76.52
2022-11-17T13:41:40.028Z,76.32
2022-11-17T13:42:42.340Z,76.10
2022-11-17T13:43:46.865Z,75.95
2022-11-17T13:44:49.590Z,75.70
2022-11-17T13:45:58.401Z,75.51
2022-11-17T13:47:20.729Z,75.16
2022-11-17T13:48:36.969Z,74.52
2022-11-17T13:49:39.745Z,74.33
2022-11-17T13:50:41.979Z,74.15
2022-11-17T13:51:45.307Z,74.94
2022-11-17T13:52:55.616Z,75.64
2022-11-17T13:54:02.863Z,76.07
2022-11-17T13:55:20.151Z,75.66
2022-11-17T13:56:32.351Z,75.91
2022-11-17T13:57:34.691Z,75.57
2022-11-17T13:58:43.350Z,75.25
2022-11-17T13:59:46.883Z,75.40
2022-11-17T14:00:54.342Z,75.80
2022-11-17T14:02:23.046Z,75.89
2022-11-17T14:03:35.066Z,75.27
2022-11-17T14:04:37.251Z,74.77
2022-11-17T14:05:56.186Z,75.28
2022-11-17T14:07:03.306Z,74.95
2022-11-17T14:08:22.165Z,74.92
2022-11-17T14:09:26.854Z,75.70
2022-11-17T14:10:31.834Z,76.22
2022-11-17T14:11:34.201Z,76.60
2022-11-17T14:12:37.047Z,76.90
2022-11-17T14:13:44.301Z,76.65
2022-11-17T14:14:46.857Z,76.17
2022-11-17T14:15:56.606Z,76.66
2022-11-17T14:17:11.219Z,77.00
2022-11-17T14:18:24.627Z,76.73
2022-11-17T14:19:33.067Z,76.19
2022-11-17T14:20:36.410Z,75.76
2022-11-17T14:21:59.659Z,76.13
2022-11-17T14:23:16.287Z,76.40
2022-11-17T14:24:18.541Z,76.83
2022-11-17T14:25:21.006Z,76.58
2022-11-17T14:26:24.910Z,76.80
2022-11-17T14:27:27.512Z,76.42
2022-11-17T14:28:29.846Z,76.59
2022-11-17T14:29:32.298Z,76.62
2022-11-17T14:30:34.559Z,76.19
2022-11-17T14:31:37.076Z,76.62
2022-11-17T14:32:40.275Z,76.52
2022-11-17T14:33:42.566Z,76.52
2022-11-17T14:34:45.111Z,76.37